createdAt,value
2018-07-27T00:00:27.707Z,0.00
2018-07-27T00:01:27.761Z,0.00
2018-07-27T00:02:27.817Z,0.00
2018-07-27T00:03:27.892Z,0.00
2018-07-27T00:04:27.823Z,0.00
2018-07-27T00:05:27.893Z,0.00
2018-07-27T00:06:27.909Z,0.00
2018-07-27T00:07:27.944Z,0.00
2018-07-27T00:08:27.963Z,0.00
2018-07-27T00:09:27.985Z,0.00
2018-07-27T00:10:28.041Z,0.00
2018-07-27T00:11:28.045Z,0.00
2018-07-27T00:12:28.071Z,0.00
2018-07-27T00:13:28.099Z,0.00
2018-07-27T00:14:28.138Z,0.00
2018-07-27T00:15:28.172Z,0.00
2018-07-27T00:16:28.196Z,0.00
2018-07-27T00:17:28.221Z,0.00
2018-07-27T00:18:28.265Z,0.00
2018-07-27T00:19:28.301Z,0.00
2018-07-27T00:20:28.315Z,0.00
2018-07-27T00:21:28.356Z,0.00
2018-07-27T00:22:29.160Z,0.00
2018-07-27T00:23:28.419Z,0.00
2018-07-27T00:24:28.482Z,0.00
2018-07-27T00:25:28.482Z,0.00
2018-07-27T00:26:28.502Z,0.00
2018-07-27T00:27:28.555Z,0.00
2018-07-27T00:28:28.566Z,0.00
2018-07-27T00:29:28.592Z,0.00
2018-07-27T00:30:28.624Z,0.00
2018-07-27T00:31:28.670Z,0.00
2018-07-27T00:32:28.684Z,0.00
2018-07-27T00:33:28.717Z,0.00
2018-07-27T00:34:28.746Z,0.00
2018-07-27T00:35:28.777Z,0.00
2018-07-27T00:36:28.821Z,0.00
2018-07-27T00:37:28.843Z,0.00
2018-07-27T00:38:28.872Z,0.00
2018-07-27T00:39:28.903Z,0.00
2018-07-27T00:40:28.936Z,0.00
2018-07-27T00:41:28.958Z,0.00
2018-07-27T00:42:28.999Z,0.00
2018-07-27T00:43:29.029Z,0.00
2018-07-27T00:44:29.071Z,0.00
2018-07-27T00:45:29.090Z,0.00
2018-07-27T00:46:29.119Z,0.00
2018-07-27T00:47:29.147Z,0.00
2018-07-27T00:48:29.177Z,0.00
2018-07-27T00:49:29.217Z,0.00
2018-07-27T00:50:29.242Z,0.00
2018-07-27T00:51:29.274Z,0.00
2018-07-27T00:52:29.300Z,0.00
2018-07-27T00:53:29.336Z,0.00
2018-07-27T00:54:29.367Z,0.00
2018-07-27T00:55:29.392Z,0.00
2018-07-27T00:56:29.423Z,0.00
2018-07-27T00:57:29.464Z,0.00
2018-07-27T00:58:29.485Z,0.00
2018-07-27T00:59:29.514Z,0.00
2018-07-27T01:00:29.553Z,0.00
2018-07-27T01:01:29.603Z,0.00
2018-07-27T01:02:29.609Z,0.00
2018-07-27T01:03:29.644Z,0.00
2018-07-27T01:04:29.672Z,0.00
2018-07-27T01:05:29.699Z,0.00
2018-07-27T01:06:29.742Z,0.00
2018-07-27T01:07:29.761Z,0.00
2018-07-27T01:08:29.791Z,0.00
2018-07-27T01:09:29.827Z,0.00
2018-07-27T01:10:29.855Z,0.00
2018-07-27T01:11:29.883Z,0.00
2018-07-27T01:12:29.927Z,0.00
2018-07-27T01:13:29.949Z,0.00
2018-07-27T01:14:29.979Z,0.00
2018-07-27T01:15:30.012Z,0.00
2018-07-27T01:16:30.052Z,0.00
2018-07-27T01:17:30.068Z,0.00
2018-07-27T01:18:30.104Z,0.00
2018-07-27T01:19:30.132Z,0.00
2018-07-27T01:20:30.163Z,0.00
2018-07-27T01:21:30.191Z,0.00
2018-07-27T01:22:31.183Z,0.00
2018-07-27T01:23:30.252Z,0.00
2018-07-27T01:24:30.279Z,0.00
2018-07-27T01:25:30.317Z,0.00
2018-07-27T01:26:30.344Z,0.00
2018-07-27T01:27:30.375Z,0.00
2018-07-27T01:28:30.405Z,0.00
2018-07-27T01:29:30.452Z,0.00
2018-07-27T01:30:30.464Z,0.00
2018-07-27T01:31:31.194Z,0.00
2018-07-27T01:32:30.531Z,0.00
2018-07-27T01:33:30.584Z,0.00
2018-07-27T01:34:30.599Z,0.00
2018-07-27T01:35:30.616Z,0.00
2018-07-27T01:36:30.649Z,0.00
2018-07-27T01:37:30.679Z,0.00
2018-07-27T01:38:30.713Z,0.00
2018-07-27T01:39:30.746Z,0.00
2018-07-27T01:40:31.688Z,0.00
2018-07-27T01:41:30.809Z,0.00
2018-07-27T01:42:30.906Z,0.00
2018-07-27T01:43:30.865Z,0.00
2018-07-27T01:44:30.906Z,0.00
2018-07-27T01:45:30.931Z,0.00
2018-07-27T01:46:30.952Z,0.00
2018-07-27T01:47:30.988Z,0.00
2018-07-27T01:48:31.018Z,0.00
2018-07-27T01:49:31.047Z,0.00
2018-07-27T01:50:31.082Z,0.00
2018-07-27T01:51:31.122Z,0.00
2018-07-27T01:52:31.151Z,0.00
2018-07-27T01:53:31.175Z,0.00
2018-07-27T01:54:31.205Z,0.00
2018-07-27T01:55:31.251Z,0.00
2018-07-27T01:56:31.260Z,0.00
2018-07-27T01:57:31.289Z,0.00
2018-07-27T01:58:31.322Z,0.00
2018-07-27T01:59:31.355Z,0.00
2018-07-27T02:00:31.387Z,0.00
2018-07-27T02:01:31.417Z,0.00
2018-07-27T02:02:31.456Z,0.00
2018-07-27T02:03:31.480Z,0.00
2018-07-27T02:04:31.504Z,0.00
2018-07-27T02:05:31.536Z,0.00
2018-07-27T02:06:31.569Z,0.00
2018-07-27T02:07:31.601Z,0.00
2018-07-27T02:08:31.630Z,0.00
2018-07-27T02:09:31.657Z,0.00
2018-07-27T02:10:31.689Z,0.00
2018-07-27T02:11:31.723Z,0.00
2018-07-27T02:12:31.750Z,0.00
2018-07-27T02:13:31.785Z,0.00
2018-07-27T02:14:31.826Z,0.00
2018-07-27T02:15:31.839Z,0.00
2018-07-27T02:16:31.872Z,0.00
2018-07-27T02:17:31.922Z,0.00
2018-07-27T02:18:31.942Z,0.00
2018-07-27T02:19:31.964Z,0.00
2018-07-27T02:20:31.994Z,0.00
2018-07-27T02:21:32.029Z,0.00
2018-07-27T02:22:32.052Z,0.00
2018-07-27T02:23:32.098Z,0.00
2018-07-27T02:24:32.120Z,0.00
2018-07-27T02:25:32.147Z,0.00
2018-07-27T02:26:32.174Z,0.00
2018-07-27T02:27:32.212Z,0.00
2018-07-27T02:28:32.239Z,0.00
2018-07-27T02:29:32.274Z,0.00
2018-07-27T02:30:32.296Z,0.00
2018-07-27T02:31:32.334Z,0.00
2018-07-27T02:32:32.361Z,0.00
2018-07-27T02:33:32.399Z,0.00
2018-07-27T02:34:32.422Z,0.00
2018-07-27T02:35:32.453Z,0.00
2018-07-27T02:36:32.485Z,0.00
2018-07-27T02:37:32.508Z,0.00
2018-07-27T02:38:32.542Z,0.00
2018-07-27T02:39:32.571Z,0.00
2018-07-27T02:40:33.209Z,0.00
2018-07-27T02:41:32.635Z,0.00
2018-07-27T02:42:32.680Z,0.00
2018-07-27T02:43:32.696Z,0.00
2018-07-27T02:44:32.723Z,0.00
2018-07-27T02:45:32.754Z,0.00
2018-07-27T02:46:32.784Z,0.00
2018-07-27T02:47:32.821Z,0.00
2018-07-27T02:48:32.855Z,0.00
2018-07-27T02:49:32.879Z,0.00
2018-07-27T02:50:32.909Z,0.00
2018-07-27T02:51:32.941Z,0.00
2018-07-27T02:52:32.970Z,0.00
2018-07-27T02:53:32.997Z,0.00
2018-07-27T02:54:33.032Z,0.00
2018-07-27T02:55:33.059Z,0.00
2018-07-27T02:56:33.087Z,4.00
2018-07-27T02:57:33.127Z,0.00
2018-07-27T02:58:33.157Z,0.00
2018-07-27T02:59:33.184Z,0.00
2018-07-27T03:00:33.216Z,0.00
2018-07-27T03:01:33.240Z,0.00
2018-07-27T03:02:33.276Z,4.00
2018-07-27T03:03:33.301Z,4.00
2018-07-27T03:04:33.335Z,0.00
2018-07-27T03:05:33.373Z,4.00
2018-07-27T03:06:33.393Z,4.00
2018-07-27T03:07:33.428Z,4.00
2018-07-27T03:08:33.459Z,4.00
2018-07-27T03:09:33.515Z,4.00
2018-07-27T03:10:33.514Z,4.00
2018-07-27T03:11:33.544Z,8.00
2018-07-27T03:12:33.571Z,4.00
2018-07-27T03:13:33.609Z,4.00
2018-07-27T03:14:33.635Z,8.00
2018-07-27T03:15:33.676Z,4.00
2018-07-27T03:16:33.696Z,8.00
2018-07-27T03:17:33.728Z,8.00
2018-07-27T03:18:33.767Z,8.00
2018-07-27T03:19:33.794Z,8.00
2018-07-27T03:20:33.829Z,8.00
2018-07-27T03:21:33.850Z,12.00
2018-07-27T03:22:33.880Z,8.00
2018-07-27T03:23:33.913Z,12.00
2018-07-27T03:24:33.943Z,12.00
2018-07-27T03:25:33.971Z,16.00
2018-07-27T03:26:34.000Z,16.00
2018-07-27T03:27:34.040Z,16.00
2018-07-27T03:28:34.060Z,16.00
2018-07-27T03:29:34.103Z,16.00
2018-07-27T03:30:34.124Z,20.00
2018-07-27T03:31:34.155Z,20.00
2018-07-27T03:32:34.240Z,20.00
2018-07-27T03:33:34.229Z,20.00
2018-07-27T03:34:34.256Z,20.00
2018-07-27T03:35:34.279Z,20.00
2018-07-27T03:36:34.303Z,20.00
2018-07-27T03:37:34.332Z,24.00
2018-07-27T03:38:34.371Z,24.00
2018-07-27T03:39:34.393Z,24.00
2018-07-27T03:40:34.434Z,28.00
2018-07-27T03:41:34.464Z,28.00
2018-07-27T03:42:34.492Z,28.00
2018-07-27T03:43:34.521Z,28.00
2018-07-27T03:44:34.549Z,32.00
2018-07-27T03:45:34.573Z,32.00
2018-07-27T03:46:34.604Z,32.00
2018-07-27T03:47:34.636Z,36.00
2018-07-27T03:48:34.669Z,36.00
2018-07-27T03:49:34.711Z,36.00
2018-07-27T03:50:34.732Z,40.00
2018-07-27T03:51:34.796Z,40.00
2018-07-27T03:52:34.785Z,40.00
2018-07-27T03:53:34.823Z,44.00
2018-07-27T03:54:34.853Z,44.00
2018-07-27T03:55:34.885Z,48.00
2018-07-27T03:56:34.912Z,48.00
2018-07-27T03:57:34.942Z,52.00
2018-07-27T03:58:34.970Z,52.00
2018-07-27T03:59:35.001Z,52.00
2018-07-27T04:00:35.110Z,52.00
2018-07-27T04:01:35.062Z,60.00
2018-07-27T04:02:35.093Z,56.00
2018-07-27T04:03:35.133Z,60.00
2018-07-27T04:04:35.155Z,60.00
2018-07-27T04:05:35.187Z,64.00
2018-07-27T04:06:35.221Z,64.00
2018-07-27T04:07:35.245Z,68.00
2018-07-27T04:08:35.282Z,72.00
2018-07-27T04:09:35.304Z,72.00
2018-07-27T04:10:35.337Z,76.00
2018-07-27T04:11:35.363Z,80.00
2018-07-27T04:12:35.394Z,80.00
2018-07-27T04:13:35.428Z,84.00
2018-07-27T04:14:35.454Z,88.00
2018-07-27T04:15:35.489Z,92.00
2018-07-27T04:16:35.519Z,96.00
2018-07-27T04:17:35.554Z,96.00
2018-07-27T04:18:35.584Z,96.00
2018-07-27T04:19:35.601Z,104.00
2018-07-27T04:20:35.637Z,108.00
2018-07-27T04:21:35.676Z,112.00
2018-07-27T04:22:35.700Z,120.00
2018-07-27T04:23:35.739Z,124.00
2018-07-27T04:24:35.782Z,128.00
2018-07-27T04:25:35.790Z,132.00
2018-07-27T04:26:35.818Z,132.00
2018-07-27T04:27:35.856Z,136.00
2018-07-27T04:28:35.882Z,144.00
2018-07-27T04:29:35.911Z,148.00
2018-07-27T04:30:35.944Z,156.00
2018-07-27T04:31:35.975Z,160.00
2018-07-27T04:32:36.028Z,164.00
2018-07-27T04:33:36.037Z,172.00
2018-07-27T04:34:36.060Z,172.00
2018-07-27T04:35:36.100Z,184.00
2018-07-27T04:36:36.117Z,192.00
2018-07-27T04:37:36.149Z,192.00
2018-07-27T04:38:36.191Z,192.00
2018-07-27T04:39:36.211Z,208.00
2018-07-27T04:40:36.244Z,196.00
2018-07-27T04:41:36.274Z,212.00
2018-07-27T04:42:36.309Z,228.00
2018-07-27T04:43:36.332Z,224.00
2018-07-27T04:44:36.361Z,232.00
2018-07-27T04:45:36.397Z,244.00
2018-07-27T04:46:36.429Z,244.00
2018-07-27T04:47:36.456Z,252.00
2018-07-27T04:48:36.483Z,256.00
2018-07-27T04:49:37.259Z,276.00
2018-07-27T04:50:36.565Z,280.00
2018-07-27T04:51:36.581Z,296.00
2018-07-27T04:52:36.611Z,296.00
2018-07-27T04:53:36.639Z,324.00
2018-07-27T04:54:36.788Z,312.00
2018-07-27T04:55:36.696Z,312.00
2018-07-27T04:56:36.810Z,336.00
2018-07-27T04:57:36.822Z,356.00
2018-07-27T04:58:36.865Z,324.00
2018-07-27T04:59:36.822Z,332.00
2018-07-27T05:00:36.860Z,344.00
2018-07-27T05:01:36.877Z,344.00
2018-07-27T05:02:36.909Z,364.00
2018-07-27T05:03:36.942Z,356.00
2018-07-27T05:04:36.982Z,340.00
2018-07-27T05:05:37.000Z,348.00
2018-07-27T05:06:37.029Z,400.00
2018-07-27T05:08:37.096Z,352.00
2018-07-27T05:09:37.130Z,364.00
2018-07-27T05:10:37.177Z,364.00
2018-07-27T05:11:37.189Z,364.00
2018-07-27T05:12:37.319Z,352.00
2018-07-27T05:13:37.251Z,356.00
2018-07-27T05:14:37.279Z,356.00
2018-07-27T05:16:37.342Z,356.00
2018-07-27T05:17:37.372Z,368.00
2018-07-27T05:18:37.392Z,380.00
2018-07-27T05:19:37.425Z,360.00
2018-07-27T05:20:37.463Z,352.00
2018-07-27T05:21:37.493Z,352.00
2018-07-27T05:22:37.514Z,352.00
2018-07-27T05:23:37.548Z,356.00
2018-07-27T05:24:37.616Z,344.00
2018-07-27T05:25:37.615Z,372.00
2018-07-27T05:26:37.640Z,352.00
2018-07-27T05:27:37.667Z,352.00
2018-07-27T05:28:37.699Z,356.00
2018-07-27T05:29:37.731Z,364.00
2018-07-27T05:31:37.830Z,368.00
2018-07-27T05:32:37.860Z,372.00
2018-07-27T05:33:37.900Z,372.00
2018-07-27T05:34:37.926Z,368.00
2018-07-27T05:35:37.954Z,400.00
2018-07-27T05:36:37.993Z,360.00
2018-07-27T05:37:59.112Z,360.00
2018-07-27T05:38:38.000Z,376.00
2018-07-27T05:39:38.039Z,368.00
2018-07-27T05:40:38.063Z,352.00
2018-07-27T05:41:38.099Z,372.00
2018-07-27T05:42:38.122Z,380.00
2018-07-27T05:43:38.157Z,368.00
2018-07-27T05:44:38.196Z,360.00
2018-07-27T05:45:38.216Z,344.00
2018-07-27T05:46:38.247Z,340.00
2018-07-27T05:47:38.279Z,352.00
2018-07-27T05:48:38.317Z,356.00
2018-07-27T05:49:38.382Z,340.00
2018-07-27T05:50:38.366Z,364.00
2018-07-27T05:51:38.403Z,352.00
2018-07-27T05:52:38.462Z,340.00
2018-07-27T05:53:38.459Z,368.00
2018-07-27T05:54:38.500Z,372.00
2018-07-27T05:55:38.526Z,364.00
2018-07-27T05:56:38.552Z,368.00
2018-07-27T05:57:38.578Z,348.00
2018-07-27T05:58:38.730Z,356.00
2018-07-27T05:59:38.656Z,360.00
2018-07-27T06:00:38.670Z,372.00
2018-07-27T06:01:38.709Z,356.00
2018-07-27T06:02:38.764Z,360.00
2018-07-27T06:03:38.766Z,348.00
2018-07-27T06:04:38.800Z,356.00
2018-07-27T06:05:38.824Z,356.00
2018-07-27T06:06:38.856Z,356.00
2018-07-27T06:07:38.894Z,360.00
2018-07-27T06:08:38.968Z,364.00
2018-07-27T06:09:39.006Z,364.00
2018-07-27T06:10:38.982Z,368.00
2018-07-27T06:11:39.022Z,376.00
2018-07-27T06:12:39.043Z,376.00
2018-07-27T06:13:39.072Z,376.00
2018-07-27T06:14:39.112Z,372.00
2018-07-27T06:15:39.130Z,404.00
2018-07-27T06:16:39.161Z,372.00
2018-07-27T06:17:39.203Z,368.00
2018-07-27T06:18:39.244Z,372.00
2018-07-27T06:19:39.253Z,364.00
2018-07-27T06:20:39.288Z,372.00
2018-07-27T06:21:39.317Z,400.00
2018-07-27T06:22:39.347Z,376.00
2018-07-27T06:23:39.425Z,376.00
2018-07-27T06:24:39.422Z,376.00
2018-07-27T06:25:39.527Z,376.00
2018-07-27T06:26:39.469Z,376.00
2018-07-27T06:27:39.496Z,376.00
2018-07-27T06:28:39.532Z,376.00
2018-07-27T06:29:39.564Z,384.00
2018-07-27T06:30:39.606Z,380.00
2018-07-27T06:31:39.620Z,384.00
2018-07-27T06:32:39.649Z,384.00
2018-07-27T06:33:39.692Z,388.00
2018-07-27T06:34:39.711Z,392.00
2018-07-27T06:35:39.742Z,388.00
2018-07-27T06:36:39.776Z,400.00
2018-07-27T06:37:39.813Z,396.00
2018-07-27T06:38:39.863Z,396.00
2018-07-27T06:39:39.876Z,392.00
2018-07-27T06:40:40.083Z,396.00
2018-07-27T06:41:39.928Z,400.00
2018-07-27T06:42:40.086Z,408.00
2018-07-27T06:43:40.005Z,396.00
2018-07-27T06:44:40.025Z,412.00
2018-07-27T06:45:40.051Z,416.00
2018-07-27T06:46:40.078Z,420.00
2018-07-27T06:47:40.111Z,408.00
2018-07-27T06:48:40.152Z,420.00
2018-07-27T06:49:40.169Z,424.00
2018-07-27T06:50:40.224Z,412.00
2018-07-27T06:51:40.247Z,424.00
2018-07-27T06:52:40.264Z,436.00
2018-07-27T06:53:40.303Z,440.00
2018-07-27T06:54:40.325Z,444.00
2018-07-27T06:55:40.361Z,456.00
2018-07-27T06:56:40.392Z,448.00
2018-07-27T06:57:40.416Z,460.00
2018-07-27T06:58:40.456Z,460.00
2018-07-27T06:59:40.477Z,456.00
2018-07-27T07:00:40.517Z,476.00
2018-07-27T07:01:40.535Z,464.00
2018-07-27T07:02:40.567Z,484.00
2018-07-27T07:03:40.604Z,492.00
2018-07-27T07:04:40.632Z,468.00
2018-07-27T07:05:40.662Z,488.00
2018-07-27T07:06:40.696Z,492.00
2018-07-27T07:07:40.735Z,504.00
2018-07-27T07:08:40.762Z,512.00
2018-07-27T07:09:40.808Z,476.00
2018-07-27T07:10:40.829Z,520.00
2018-07-27T07:11:40.857Z,512.00
2018-07-27T07:12:40.879Z,532.00
2018-07-27T07:13:40.908Z,536.00
2018-07-27T07:14:40.943Z,536.00
2018-07-27T07:15:40.973Z,544.00
2018-07-27T07:16:41.007Z,548.00
2018-07-27T07:17:41.036Z,552.00
2018-07-27T07:18:41.067Z,552.00
2018-07-27T07:19:41.095Z,552.00
2018-07-27T07:20:41.123Z,556.00
2018-07-27T07:21:41.160Z,548.00
2018-07-27T07:22:41.183Z,568.00
2018-07-27T07:23:41.216Z,500.00
2018-07-27T07:24:41.254Z,556.00
2018-07-27T07:25:41.361Z,576.00
2018-07-27T07:26:41.314Z,576.00
2018-07-27T07:27:41.347Z,564.00
2018-07-27T07:28:41.373Z,580.00
2018-07-27T07:29:41.438Z,588.00
2018-07-27T07:30:41.438Z,584.00
2018-07-27T07:31:41.460Z,596.00
2018-07-27T07:32:41.497Z,556.00
2018-07-27T07:33:41.529Z,580.00
2018-07-27T07:34:41.551Z,596.00
2018-07-27T07:35:41.584Z,612.00
2018-07-27T07:36:41.624Z,604.00
2018-07-27T07:37:41.652Z,616.00
2018-07-27T07:38:41.680Z,524.00
2018-07-27T07:39:41.709Z,660.00
2018-07-27T07:40:41.735Z,676.00
2018-07-27T07:41:41.767Z,572.00
2018-07-27T07:42:41.801Z,580.00
2018-07-27T07:43:41.849Z,676.00
2018-07-27T07:44:41.859Z,688.00
2018-07-27T07:45:41.890Z,596.00
2018-07-27T07:46:41.935Z,704.00
2018-07-27T07:47:41.962Z,716.00
2018-07-27T07:48:41.990Z,724.00
2018-07-27T07:49:42.014Z,712.00
2018-07-27T07:50:42.050Z,716.00
2018-07-27T07:51:42.133Z,732.00
2018-07-27T07:52:42.137Z,724.00
2018-07-27T07:53:42.145Z,744.00
2018-07-27T07:54:42.171Z,744.00
2018-07-27T07:55:42.210Z,748.00
2018-07-27T07:56:42.232Z,744.00
2018-07-27T07:57:42.295Z,752.00
2018-07-27T07:58:42.353Z,732.00
2018-07-27T07:59:42.338Z,740.00
2018-07-27T08:00:42.371Z,776.00
2018-07-27T08:01:42.409Z,780.00
2018-07-27T08:02:42.427Z,724.00
2018-07-27T08:03:42.469Z,788.00
2018-07-27T08:04:42.485Z,792.00
2018-07-27T08:05:43.333Z,792.00
2018-07-27T08:06:42.549Z,788.00
2018-07-27T08:07:42.625Z,784.00
2018-07-27T08:08:42.607Z,800.00
2018-07-27T08:09:42.633Z,780.00
2018-07-27T08:10:42.667Z,776.00
2018-07-27T08:11:42.701Z,800.00
2018-07-27T08:12:42.731Z,796.00
2018-07-27T08:13:42.843Z,772.00
2018-07-27T08:14:42.797Z,792.00
2018-07-27T08:15:42.818Z,784.00
2018-07-27T08:16:42.880Z,792.00
2018-07-27T08:17:42.901Z,808.00
2018-07-27T08:18:42.914Z,800.00
2018-07-27T08:19:42.948Z,780.00
2018-07-27T08:20:42.989Z,792.00
2018-07-27T08:21:43.005Z,692.00
2018-07-27T08:22:43.048Z,752.00
2018-07-27T08:23:43.086Z,812.00
2018-07-27T08:24:43.099Z,784.00
2018-07-27T08:25:43.188Z,800.00
2018-07-27T08:26:43.160Z,812.00
2018-07-27T08:27:43.196Z,820.00
2018-07-27T08:28:43.233Z,836.00
2018-07-27T08:29:43.259Z,852.00
2018-07-27T08:30:43.294Z,784.00
2018-07-27T08:31:43.315Z,836.00
2018-07-27T08:32:43.345Z,804.00
2018-07-27T08:33:43.386Z,780.00
2018-07-27T08:34:43.421Z,792.00
2018-07-27T08:35:43.444Z,804.00
2018-07-27T08:36:43.472Z,748.00
2018-07-27T08:37:43.517Z,784.00
2018-07-27T08:38:43.536Z,816.00
2018-07-27T08:39:43.624Z,788.00
2018-07-27T08:40:43.596Z,792.00
2018-07-27T08:41:43.626Z,832.00
2018-07-27T08:42:43.677Z,840.00
2018-07-27T08:43:43.703Z,860.00
2018-07-27T08:44:43.751Z,840.00
2018-07-27T08:45:43.749Z,704.00
2018-07-27T08:46:43.780Z,820.00
2018-07-27T08:47:43.830Z,772.00
2018-07-27T08:48:43.865Z,840.00
2018-07-27T08:49:43.880Z,900.00
2018-07-27T08:50:43.919Z,960.00
2018-07-27T08:51:43.939Z,960.00
2018-07-27T08:52:43.969Z,976.00
2018-07-27T08:53:44.027Z,1020.00
2018-07-27T08:54:44.038Z,1096.00
2018-07-27T08:55:44.060Z,1024.00
2018-07-27T08:56:44.092Z,1048.00
2018-07-27T08:57:44.124Z,1044.00
2018-07-27T08:58:44.156Z,1076.00
2018-07-27T08:59:44.196Z,1004.00
2018-07-27T09:00:44.231Z,448.00
2018-07-27T09:01:44.271Z,396.00
2018-07-27T09:02:44.279Z,1012.00
2018-07-27T09:03:44.317Z,816.00
2018-07-27T09:04:44.350Z,1252.00
2018-07-27T09:05:44.381Z,804.00
2018-07-27T09:06:44.409Z,1236.00
2018-07-27T09:07:44.449Z,872.00
2018-07-27T09:08:44.477Z,756.00
2018-07-27T09:09:44.505Z,668.00
2018-07-27T09:10:44.532Z,1072.00
2018-07-27T09:11:44.571Z,592.00
2018-07-27T09:12:44.605Z,552.00
2018-07-27T09:13:44.624Z,396.00
2018-07-27T09:14:44.672Z,1008.00
2018-07-27T09:15:44.688Z,416.00
2018-07-27T09:16:44.728Z,500.00
2018-07-27T09:17:44.757Z,592.00
2018-07-27T09:18:44.789Z,500.00
2018-07-27T09:19:44.810Z,468.00
2018-07-27T09:20:44.855Z,1260.00
2018-07-27T09:21:44.876Z,900.00
2018-07-27T09:22:44.911Z,496.00
2018-07-27T09:23:44.962Z,556.00
2018-07-27T09:24:45.095Z,624.00
2018-07-27T09:25:44.997Z,836.00
2018-07-27T09:26:45.079Z,768.00
2018-07-27T09:27:45.084Z,752.00
2018-07-27T09:28:45.093Z,776.00
2018-07-27T09:29:45.136Z,696.00
2018-07-27T09:30:45.155Z,664.00
2018-07-27T09:31:45.191Z,736.00
2018-07-27T09:32:45.217Z,1496.00
2018-07-27T09:33:45.256Z,1464.00
2018-07-27T09:34:45.347Z,1796.00
2018-07-27T09:35:45.315Z,892.00
2018-07-27T09:36:45.351Z,2052.00
2018-07-27T09:37:45.390Z,720.00
2018-07-27T09:38:45.418Z,672.00
2018-07-27T09:39:45.435Z,2008.00
2018-07-27T09:40:45.475Z,656.00
2018-07-27T09:41:45.499Z,776.00
2018-07-27T09:42:45.529Z,708.00
2018-07-27T09:43:45.559Z,676.00
2018-07-27T09:44:45.596Z,552.00
2018-07-27T09:45:45.623Z,468.00
2018-07-27T09:46:45.661Z,576.00
2018-07-27T09:47:45.706Z,2848.00
2018-07-27T09:48:45.730Z,2872.00
2018-07-27T09:49:45.754Z,2924.00
2018-07-27T09:50:45.782Z,2616.00
2018-07-27T09:51:45.908Z,2760.00
2018-07-27T09:52:45.845Z,2880.00
2018-07-27T09:53:45.981Z,2892.00
2018-07-27T09:54:45.922Z,3144.00
2018-07-27T09:55:45.965Z,2996.00
2018-07-27T09:56:45.975Z,508.00
2018-07-27T09:57:46.013Z,1592.00
2018-07-27T09:58:46.031Z,3240.00
2018-07-27T09:59:46.064Z,3340.00
2018-07-27T10:00:46.099Z,2760.00
2018-07-27T10:01:46.122Z,3384.00
2018-07-27T10:02:46.160Z,4132.00
2018-07-27T10:03:46.202Z,684.00
2018-07-27T10:04:46.223Z,1156.00
2018-07-27T10:05:46.255Z,3632.00
2018-07-27T10:06:46.284Z,2912.00
2018-07-27T10:07:46.315Z,4564.00
2018-07-27T10:08:46.359Z,7020.00
2018-07-27T10:09:46.388Z,792.00
2018-07-27T10:10:46.407Z,1936.00
2018-07-27T10:11:46.442Z,1104.00
2018-07-27T10:12:46.536Z,892.00
2018-07-27T10:13:46.509Z,528.00
2018-07-27T10:14:46.532Z,348.00
2018-07-27T10:15:46.577Z,316.00
2018-07-27T10:16:46.603Z,316.00
2018-07-27T10:17:46.630Z,464.00
2018-07-27T10:18:46.664Z,1472.00
2018-07-27T10:19:46.689Z,9904.00
2018-07-27T10:20:46.730Z,10000.00
2018-07-27T10:21:46.760Z,4164.00
2018-07-27T10:22:46.787Z,13244.00
2018-07-27T10:23:46.826Z,9260.00
2018-07-27T10:24:46.847Z,7304.00
2018-07-27T10:25:46.884Z,6836.00
2018-07-27T10:26:46.936Z,7404.00
2018-07-27T10:27:46.943Z,10576.00
2018-07-27T10:28:46.977Z,9036.00
2018-07-27T10:29:47.014Z,10324.00
2018-07-27T10:30:47.053Z,5124.00
2018-07-27T10:31:47.078Z,10792.00
2018-07-27T10:32:47.115Z,10588.00
2018-07-27T10:33:47.142Z,5848.00
2018-07-27T10:34:47.177Z,1044.00
2018-07-27T10:35:47.210Z,8620.00
2018-07-27T10:36:47.239Z,988.00
2018-07-27T10:37:47.264Z,1236.00
2018-07-27T10:38:47.294Z,10548.00
2018-07-27T10:39:47.325Z,5232.00
2018-07-27T10:40:47.361Z,8020.00
2018-07-27T10:41:47.403Z,3140.00
2018-07-27T10:42:47.421Z,9172.00
2018-07-27T10:43:47.471Z,5216.00
2018-07-27T10:44:47.496Z,10340.00
2018-07-27T10:45:47.520Z,9808.00
2018-07-27T10:46:47.550Z,1868.00
2018-07-27T10:47:47.588Z,1672.00
2018-07-27T10:48:47.627Z,1588.00
2018-07-27T10:49:47.662Z,10576.00
2018-07-27T10:50:47.679Z,10200.00
2018-07-27T10:51:47.714Z,7564.00
2018-07-27T10:52:47.746Z,10452.00
2018-07-27T10:53:47.780Z,10436.00
2018-07-27T10:54:47.812Z,10796.00
2018-07-27T10:55:47.849Z,10652.00
2018-07-27T10:56:47.877Z,10788.00
2018-07-27T10:57:47.910Z,11092.00
2018-07-27T10:58:47.949Z,11224.00
2018-07-27T10:59:47.971Z,1192.00
2018-07-27T11:00:48.012Z,664.00
2018-07-27T11:01:48.040Z,1428.00
2018-07-27T11:02:48.077Z,11776.00
2018-07-27T11:03:48.110Z,3044.00
2018-07-27T11:04:48.138Z,12384.00
2018-07-27T11:05:48.175Z,11968.00
2018-07-27T11:06:48.207Z,11740.00
2018-07-27T11:07:48.240Z,11980.00
2018-07-27T11:08:48.290Z,12044.00
2018-07-27T11:09:48.336Z,12092.00
2018-07-27T11:10:48.334Z,12148.00
2018-07-27T11:11:48.374Z,11636.00
2018-07-27T11:12:48.425Z,12484.00
2018-07-27T11:13:48.444Z,13128.00
2018-07-27T11:14:48.473Z,13344.00
2018-07-27T11:15:48.507Z,14400.00
2018-07-27T11:16:48.541Z,21472.00
2018-07-27T11:17:48.619Z,32576.00
2018-07-27T11:18:48.613Z,37344.00
2018-07-27T11:19:48.715Z,34592.00
2018-07-27T11:20:48.676Z,32480.00
2018-07-27T11:21:48.718Z,37184.00
2018-07-27T11:22:48.755Z,40416.00
2018-07-27T11:23:48.787Z,40928.00
2018-07-27T11:24:48.818Z,39616.00
2018-07-27T11:25:48.858Z,37728.00
2018-07-27T11:26:48.894Z,34368.00
2018-07-27T11:27:48.928Z,31264.00
2018-07-27T11:28:49.103Z,30848.00
2018-07-27T11:29:49.004Z,33376.00
2018-07-27T11:30:49.034Z,31520.00
2018-07-27T11:31:49.071Z,22272.00
2018-07-27T11:32:49.109Z,3940.00
2018-07-27T11:33:49.147Z,960.00
2018-07-27T11:34:49.200Z,648.00
2018-07-27T11:35:49.224Z,608.00
2018-07-27T11:36:49.264Z,848.00
2018-07-27T11:37:49.299Z,1204.00
2018-07-27T11:38:49.334Z,1004.00
2018-07-27T11:39:49.372Z,848.00
2018-07-27T11:40:49.403Z,804.00
2018-07-27T11:41:49.441Z,788.00
2018-07-27T11:42:49.471Z,816.00
2018-07-27T11:43:49.512Z,800.00
2018-07-27T11:44:49.541Z,844.00
2018-07-27T11:45:49.575Z,900.00
2018-07-27T11:46:49.622Z,888.00
2018-07-27T11:47:49.641Z,932.00
2018-07-27T11:48:49.684Z,936.00
2018-07-27T11:49:49.710Z,960.00
2018-07-27T11:50:49.743Z,836.00
2018-07-27T11:51:49.775Z,1012.00
2018-07-27T11:52:49.826Z,1056.00
2018-07-27T11:53:49.848Z,1272.00
2018-07-27T11:54:49.874Z,1168.00
2018-07-27T11:55:49.922Z,1140.00
2018-07-27T11:56:49.953Z,1088.00
2018-07-27T11:57:49.980Z,880.00
2018-07-27T11:58:50.011Z,772.00
2018-07-27T11:59:50.040Z,932.00
2018-07-27T12:00:50.094Z,1208.00
2018-07-27T12:01:50.109Z,1220.00
2018-07-27T12:02:50.143Z,1020.00
2018-07-27T12:03:50.178Z,968.00
2018-07-27T12:04:50.217Z,916.00
2018-07-27T12:05:50.241Z,848.00
2018-07-27T12:06:50.281Z,924.00
2018-07-27T12:07:50.311Z,880.00
2018-07-27T12:08:50.335Z,764.00
2018-07-27T12:09:50.367Z,772.00
2018-07-27T12:10:50.410Z,840.00
2018-07-27T12:11:50.435Z,928.00
2018-07-27T12:12:50.467Z,1088.00
2018-07-27T12:13:50.613Z,1156.00
2018-07-27T12:14:50.698Z,1104.00
2018-07-27T12:15:50.578Z,1160.00
2018-07-27T12:16:50.608Z,1056.00
2018-07-27T12:17:50.636Z,792.00
2018-07-27T12:18:50.664Z,836.00
2018-07-27T12:19:50.701Z,968.00
2018-07-27T12:20:50.904Z,1000.00
2018-07-27T12:21:50.763Z,1016.00
2018-07-27T12:22:51.453Z,852.00
2018-07-27T12:23:50.841Z,672.00
2018-07-27T12:24:50.882Z,612.00
2018-07-27T12:25:50.920Z,596.00
2018-07-27T12:26:50.922Z,596.00
2018-07-27T12:27:50.963Z,600.00
2018-07-27T12:28:50.999Z,588.00
2018-07-27T12:29:51.025Z,584.00
2018-07-27T12:30:51.054Z,592.00
2018-07-27T12:31:51.083Z,596.00
2018-07-27T12:32:51.126Z,576.00
2018-07-27T12:33:51.201Z,540.00
2018-07-27T12:34:51.183Z,532.00
2018-07-27T12:35:51.220Z,544.00
2018-07-27T12:36:51.247Z,544.00
2018-07-27T12:37:51.289Z,536.00
2018-07-27T12:38:51.327Z,544.00
2018-07-27T12:39:51.348Z,592.00
2018-07-27T12:40:51.377Z,532.00